createdAt,value
2022-10-03T00:02:01.702Z,9.38
2022-10-03T00:04:38.075Z,9.39
2022-10-03T00:07:34.836Z,9.35
2022-10-03T00:10:22.092Z,9.34
2022-10-03T00:13:13.416Z,9.33
2022-10-03T00:15:54.607Z,9.31
2022-10-03T00:18:31.611Z,9.33
2022-10-03T00:21:07.798Z,9.32
2022-10-03T00:23:46.693Z,9.32
2022-10-03T00:26:30.459Z,9.32
2022-10-03T00:28:58.506Z,9.33
2022-10-03T00:31:47.783Z,9.27
2022-10-03T00:34:36.619Z,9.28
2022-10-03T00:37:35.257Z,9.31
2022-10-03T00:40:11.961Z,9.31
2022-10-03T00:43:05.553Z,9.31
2022-10-03T00:45:58.458Z,9.32
2022-10-03T00:48:52.367Z,9.32
2022-10-03T00:51:29.001Z,9.33
2022-10-03T00:54:08.657Z,9.29
2022-10-03T00:56:41.920Z,9.28
2022-10-03T00:59:49.709Z,9.29
2022-10-03T01:02:21.697Z,9.30
2022-10-03T01:05:14.170Z,9.29
2022-10-03T01:08:24.780Z,9.24
2022-10-03T01:10:52.340Z,9.25
2022-10-03T01:13:37.082Z,9.27
2022-10-03T01:16:08.284Z,9.27
2022-10-03T01:19:02.239Z,9.22
2022-10-03T01:21:50.815Z,9.20
2022-10-03T01:25:12.894Z,9.26
2022-10-03T01:28:03.186Z,9.26
2022-10-03T01:30:41.502Z,9.26
2022-10-03T01:33:18.759Z,9.26
2022-10-03T01:36:02.519Z,9.31
2022-10-03T01:38:36.924Z,9.32
2022-10-03T01:41:23.402Z,9.34
2022-10-03T01:44:12.858Z,9.30
2022-10-03T01:46:48.400Z,9.30
2022-10-03T01:49:42.928Z,9.30
2022-10-03T01:52:11.992Z,9.32
2022-10-03T01:54:58.024Z,9.35
2022-10-03T01:57:37.509Z,9.34
2022-10-03T02:00:15.987Z,9.37
2022-10-03T02:02:59.996Z,9.40
2022-10-03T02:06:09.389Z,9.41
2022-10-03T02:08:40.759Z,9.42
2022-10-03T02:11:11.129Z,9.41
2022-10-03T02:13:41.814Z,9.45
2022-10-03T02:16:36.350Z,9.44
2022-10-03T02:19:29.819Z,9.43
2022-10-03T02:22:00.371Z,9.45
2022-10-03T02:24:37.128Z,9.42
2022-10-03T02:27:11.816Z,9.45
2022-10-03T02:29:51.527Z,9.44
2022-10-03T02:32:40.873Z,9.46
2022-10-03T02:35:10.502Z,9.47
2022-10-03T02:38:08.788Z,9.49
2022-10-03T02:40:58.248Z,9.47
2022-10-03T02:43:43.542Z,9.48
2022-10-03T02:46:13.816Z,9.48
2022-10-03T02:48:56.450Z,9.50
2022-10-03T02:51:52.903Z,9.50
2022-10-03T02:54:39.172Z,9.58
2022-10-03T02:57:21.115Z,9.54
2022-10-03T03:00:17.979Z,9.53
2022-10-03T03:03:16.053Z,9.53
2022-10-03T03:06:08.306Z,9.53
2022-10-03T03:09:01.066Z,9.53
2022-10-03T03:12:08.270Z,9.51
2022-10-03T03:14:47.633Z,9.54
2022-10-03T03:17:31.081Z,9.50
2022-10-03T03:20:39.067Z,9.51
2022-10-03T03:23:18.067Z,9.52
2022-10-03T03:26:20.544Z,9.53
2022-10-03T03:29:15.773Z,9.53
2022-10-03T03:32:12.117Z,9.53
2022-10-03T03:35:13.767Z,9.55
2022-10-03T03:37:47.270Z,9.54
2022-10-03T03:40:35.008Z,9.54
2022-10-03T03:43:20.680Z,9.55
2022-10-03T03:46:16.997Z,9.55
2022-10-03T03:49:02.690Z,9.56
2022-10-03T03:51:50.077Z,9.57
2022-10-03T03:54:38.858Z,9.57
2022-10-03T03:57:06.273Z,9.58
2022-10-03T03:59:45.936Z,9.55
2022-10-03T04:02:31.865Z,9.51
2022-10-03T04:05:14.663Z,9.53
2022-10-03T04:08:12.670Z,9.51
2022-10-03T04:10:49.806Z,9.51
2022-10-03T04:13:47.846Z,9.50
2022-10-03T04:16:47.442Z,9.46
2022-10-03T04:19:31.188Z,9.42
2022-10-03T04:22:20.200Z,9.43
2022-10-03T04:25:09.310Z,9.43
2022-10-03T04:27:54.225Z,9.43
2022-10-03T04:30:30.514Z,9.46
2022-10-03T04:33:30.090Z,9.48
2022-10-03T04:36:33.625Z,9.48
2022-10-03T04:39:37.126Z,9.46
2022-10-03T04:42:39.788Z,9.47
2022-10-03T04:45:38.052Z,9.49
2022-10-03T04:48:33.317Z,9.50
2022-10-03T04:51:09.004Z,9.51
2022-10-03T04:53:51.774Z,9.51
2022-10-03T04:56:34.476Z,9.53
2022-10-03T04:59:26.789Z,9.54
2022-10-03T05:02:17.178Z,9.59
2022-10-03T05:04:55.774Z,9.61
2022-10-03T05:07:42.136Z,9.65
2022-10-03T05:10:39.764Z,9.70
2022-10-03T05:13:41.838Z,9.74
2022-10-03T05:16:43.868Z,9.74
2022-10-03T05:19:33.532Z,9.82
2022-10-03T05:22:10.327Z,9.87
2022-10-03T05:24:45.251Z,9.89
2022-10-03T05:27:33.775Z,9.87
2022-10-03T05:30:09.924Z,9.87
2022-10-03T05:32:50.496Z,9.89
2022-10-03T05:35:42.471Z,9.85
2022-10-03T05:38:21.813Z,9.87
2022-10-03T05:40:52.066Z,9.87
2022-10-03T05:43:22.974Z,9.85
2022-10-03T05:46:03.957Z,9.88
2022-10-03T05:48:49.683Z,9.94
2022-10-03T05:51:39.486Z,9.93
2022-10-03T05:54:25.425Z,9.95
2022-10-03T05:57:10.831Z,9.98
2022-10-03T05:59:53.484Z,10.02
2022-10-03T06:02:35.896Z,10.02
2022-10-03T06:05:23.163Z,10.02
2022-10-03T06:08:12.354Z,10.08
2022-10-03T06:10:43.336Z,10.10
2022-10-03T06:13:16.790Z,10.06
2022-10-03T06:16:19.417Z,10.11
2022-10-03T06:18:55.828Z,10.09
2022-10-03T06:21:54.407Z,10.11
2022-10-03T06:24:30.946Z,10.15
2022-10-03T06:27:15.202Z,10.15
2022-10-03T06:29:48.283Z,10.16
2022-10-03T06:32:51.286Z,10.14
2022-10-03T06:35:44.498Z,10.18
2022-10-03T06:38:49.503Z,10.23
2022-10-03T06:41:35.459Z,10.25
2022-10-03T06:44:27.250Z,10.25
2022-10-03T06:47:26.264Z,10.27
2022-10-03T06:50:22.370Z,10.30
2022-10-03T06:53:27.218Z,10.33
2022-10-03T06:55:54.981Z,10.30
2022-10-03T06:58:37.623Z,10.29
2022-10-03T07:01:43.309Z,10.33
2022-10-03T07:04:45.008Z,10.35
2022-10-03T07:07:13.101Z,10.31
2022-10-03T07:10:01.107Z,10.36
2022-10-03T07:12:43.840Z,10.42
2022-10-03T07:16:02.259Z,10.43
2022-10-03T07:19:15.993Z,10.49
2022-10-03T07:22:26.573Z,10.48
2022-10-03T07:25:05.868Z,10.44
2022-10-03T07:28:07.515Z,10.47
2022-10-03T07:31:08.561Z,10.54
2022-10-03T07:34:05.503Z,10.44
2022-10-03T07:37:12.994Z,10.46
2022-10-03T07:40:01.763Z,10.55
2022-10-03T07:42:50.685Z,10.62
2022-10-03T07:45:30.320Z,10.61
2022-10-03T07:48:25.250Z,10.75
2022-10-03T07:51:18.825Z,10.69
2022-10-03T07:54:27.294Z,10.82
2022-10-03T07:56:57.815Z,10.92
2022-10-03T07:59:50.462Z,11.04
2022-10-03T08:02:36.265Z,11.06
2022-10-03T08:05:34.200Z,11.09
2022-10-03T08:08:25.035Z,11.07
2022-10-03T08:11:11.881Z,10.97
2022-10-03T08:13:39.321Z,10.93
2022-10-03T08:16:42.316Z,10.81
2022-10-03T08:19:31.622Z,10.83
2022-10-03T08:22:36.006Z,10.80
2022-10-03T08:25:03.779Z,10.77
2022-10-03T08:27:47.161Z,10.77
2022-10-03T08:30:23.566Z,10.85
2022-10-03T08:33:19.970Z,10.85
2022-10-03T08:36:08.626Z,10.92
2022-10-03T08:38:50.303Z,10.99
2022-10-03T08:41:49.016Z,11.08
2022-10-03T08:44:38.173Z,11.18
2022-10-03T08:47:37.055Z,11.18
2022-10-03T08:50:30.663Z,11.20
2022-10-03T08:53:11.108Z,11.28
2022-10-03T08:55:59.785Z,11.27
2022-10-03T08:58:45.548Z,11.23
2022-10-03T09:01:18.803Z,11.27
2022-10-03T09:04:11.604Z,11.22
2022-10-03T09:07:19.145Z,11.24
2022-10-03T09:10:11.471Z,11.29
2022-10-03T09:13:03.429Z,11.29
2022-10-03T09:15:58.693Z,11.32
2022-10-03T09:18:41.664Z,11.41
2022-10-03T09:21:46.678Z,11.55
2022-10-03T09:24:41.666Z,11.56
2022-10-03T09:27:39.723Z,11.62
2022-10-03T09:30:14.314Z,11.61
2022-10-03T09:32:58.609Z,11.55
2022-10-03T09:35:46.333Z,11.59
2022-10-03T09:38:44.507Z,11.46
2022-10-03T09:41:28.592Z,11.36
2022-10-03T09:44:34.515Z,11.35
2022-10-03T09:47:29.708Z,11.26
2022-10-03T09:50:19.629Z,11.30
2022-10-03T09:52:50.925Z,11.30
2022-10-03T09:55:37.189Z,11.35
2022-10-03T09:58:05.416Z,11.39
2022-10-03T10:01:02.492Z,11.36
2022-10-03T10:04:07.133Z,11.46
2022-10-03T10:06:50.245Z,11.49
2022-10-03T10:09:59.106Z,11.50
2022-10-03T10:12:55.826Z,11.56
2022-10-03T10:15:50.838Z,11.44
2022-10-03T10:18:24.329Z,11.50
2022-10-03T10:21:03.609Z,11.51
2022-10-03T10:23:49.744Z,11.43
2022-10-03T10:26:35.230Z,11.35
2022-10-03T10:29:25.575Z,11.13
2022-10-03T10:32:16.692Z,11.21
2022-10-03T10:35:03.063Z,11.24
2022-10-03T10:37:46.279Z,11.25
2022-10-03T10:40:26.936Z,11.17
2022-10-03T10:43:16.015Z,11.14
2022-10-03T10:45:48.663Z,11.13
2022-10-03T10:48:21.927Z,11.12
2022-10-03T10:51:07.174Z,11.05
2022-10-03T10:53:53.511Z,11.03
2022-10-03T10:56:39.432Z,10.99
2022-10-03T10:59:16.415Z,10.97
2022-10-03T11:02:05.401Z,11.04
2022-10-03T11:04:52.499Z,11.04
2022-10-03T11:07:57.008Z,10.97
2022-10-03T11:10:52.520Z,10.98
2022-10-03T11:13:43.647Z,10.92
2022-10-03T11:16:35.322Z,10.88
2022-10-03T11:19:32.147Z,10.93
2022-10-03T11:22:36.329Z,10.90
2022-10-03T11:25:37.747Z,10.99
2022-10-03T11:28:27.326Z,11.01
2022-10-03T11:31:28.863Z,10.92
2022-10-03T11:34:21.128Z,10.89
2022-10-03T11:37:20.569Z,10.90
2022-10-03T11:40:14.147Z,10.87
2022-10-03T11:43:17.388Z,10.87
2022-10-03T11:45:56.304Z,10.91
2022-10-03T11:48:39.714Z,10.91
2022-10-03T11:51:19.265Z,10.87
2022-10-03T11:54:29.502Z,10.85
2022-10-03T11:57:03.160Z,10.98
2022-10-03T12:00:01.376Z,10.95
2022-10-03T12:02:51.826Z,10.94
2022-10-03T12:05:41.089Z,11.05
2022-10-03T12:08:51.481Z,11.01
2022-10-03T12:11:24.422Z,11.07
2022-10-03T12:14:11.686Z,11.11
2022-10-03T12:16:51.934Z,11.09
2022-10-03T12:19:24.048Z,11.07
2022-10-03T12:22:08.341Z,11.08
2022-10-03T12:24:42.000Z,11.05
2022-10-03T12:27:47.938Z,11.06
2022-10-03T12:30:19.561Z,11.07
2022-10-03T12:32:58.854Z,11.06
2022-10-03T12:35:50.742Z,11.01
2022-10-03T12:38:24.432Z,11.01
2022-10-03T12:41:01.962Z,10.98
2022-10-03T12:43:42.353Z,10.96
2022-10-03T12:46:20.360Z,10.93
2022-10-03T12:49:15.562Z,10.95
2022-10-03T12:51:48.571Z,10.89
2022-10-03T12:54:26.802Z,10.86
2022-10-03T12:57:21.935Z,10.86
2022-10-03T13:00:09.665Z,10.84
2022-10-03T13:02:50.225Z,10.78
2022-10-03T13:05:36.271Z,10.77
2022-10-03T13:08:19.649Z,10.80
2022-10-03T13:11:01.401Z,10.72
2022-10-03T13:13:52.777Z,10.69
2022-10-03T13:16:59.966Z,10.68
2022-10-03T13:19:48.371Z,10.64
2022-10-03T13:22:53.738Z,10.59
2022-10-03T13:25:34.092Z,10.61
2022-10-03T13:28:40.161Z,10.67
2022-10-03T13:31:33.663Z,10.62
2022-10-03T13:34:18.035Z,10.61
2022-10-03T13:37:00.842Z,10.63
2022-10-03T13:39:54.237Z,10.57
2022-10-03T13:42:42.057Z,10.52
2022-10-03T13:45:19.253Z,10.50
2022-10-03T13:47:53.965Z,10.52
2022-10-03T13:50:45.819Z,10.50
2022-10-03T13:53:50.599Z,10.45
2022-10-03T13:56:37.340Z,10.48
2022-10-03T13:59:23.222Z,10.51
2022-10-03T14:02:05.967Z,10.40
2022-10-03T14:05:09.007Z,10.39
2022-10-03T14:08:05.705Z,10.36
2022-10-03T14:10:51.761Z,10.36
2022-10-03T14:13:22.213Z,10.35
2022-10-03T14:16:09.256Z,10.41
2022-10-03T14:19:03.081Z,10.39
2022-10-03T14:21:40.409Z,10.39
2022-10-03T14:24:36.793Z,10.33
2022-10-03T14:27:23.739Z,10.33
2022-10-03T14:30:10.109Z,10.29
2022-10-03T14:32:54.956Z,10.31
2022-10-03T14:35:38.749Z,10.27
2022-10-03T14:38:58.685Z,10.27
2022-10-03T14:41:47.008Z,10.32
2022-10-03T14:44:17.528Z,10.25
2022-10-03T14:47:01.002Z,10.25
2022-10-03T14:52:23.069Z,10.24
2022-10-03T14:54:52.359Z,10.26
2022-10-03T14:57:47.560Z,10.23
2022-10-03T15:00:27.657Z,10.22
2022-10-03T15:02:55.651Z,10.14
2022-10-03T15:05:35.282Z,10.11
2022-10-03T15:08:12.982Z,10.11
2022-10-03T15:10:41.940Z,10.17
2022-10-03T15:13:11.091Z,10.14
2022-10-03T15:15:40.079Z,10.13
2022-10-03T15:18:15.384Z,10.09
2022-10-03T15:20:47.169Z,10.04
2022-10-03T15:23:38.724Z,10.07
2022-10-03T15:26:14.630Z,10.06
2022-10-03T15:28:47.662Z,10.00
2022-10-03T15:31:35.521Z,10.02
2022-10-03T15:34:25.772Z,10.01
2022-10-03T15:36:58.210Z,10.01
2022-10-03T15:39:30.990Z,10.01
2022-10-03T15:42:13.467Z,10.03
2022-10-03T15:44:53.844Z,10.05
2022-10-03T15:47:28.527Z,9.98
2022-10-03T15:50:08.593Z,9.94
2022-10-03T15:52:41.590Z,9.97
2022-10-03T15:55:45.034Z,9.94
2022-10-03T15:58:34.360Z,9.92
2022-10-03T16:01:10.059Z,9.97
2022-10-03T16:03:50.862Z,9.95
2022-10-03T16:06:47.842Z,9.96
2022-10-03T16:09:24.635Z,10.03
2022-10-03T16:11:57.601Z,9.97
2022-10-03T16:14:33.453Z,9.97
2022-10-03T16:17:05.927Z,9.93
2022-10-03T16:19:54.983Z,9.93
2022-10-03T16:22:31.008Z,9.88
2022-10-03T16:25:02.829Z,9.87
2022-10-03T16:27:35.643Z,9.89
2022-10-03T16:30:09.545Z,9.86
2022-10-03T16:32:48.003Z,9.86
2022-10-03T16:35:44.986Z,9.97
2022-10-03T16:38:25.106Z,9.99
2022-10-03T16:40:58.723Z,9.98
2022-10-03T16:43:29.317Z,9.91
2022-10-03T16:46:01.115Z,9.90
2022-10-03T16:48:49.718Z,9.93
2022-10-03T16:51:35.272Z,9.93
2022-10-03T16:54:05.315Z,9.94
2022-10-03T16:56:41.407Z,9.92
2022-10-03T16:59:16.889Z,9.97
2022-10-03T17:01:47.368Z,9.89
2022-10-03T17:04:22.984Z,9.88
2022-10-03T17:06:57.237Z,9.89
2022-10-03T17:09:24.798Z,9.93
2022-10-03T17:11:57.536Z,9.89
2022-10-03T17:14:28.346Z,9.90
2022-10-03T17:17:04.803Z,9.87
2022-10-03T17:19:58.577Z,9.91
2022-10-03T17:22:36.626Z,9.85
2022-10-03T17:25:41.894Z,9.88
2022-10-03T17:28:29.873Z,9.89
2022-10-03T17:31:04.409Z,9.85
2022-10-03T17:33:43.044Z,9.89
2022-10-03T17:36:27.243Z,9.86
2022-10-03T17:39:04.406Z,9.90
2022-10-03T17:41:52.071Z,9.89
2022-10-03T17:44:28.490Z,9.82
2022-10-03T17:47:05.428Z,9.85
2022-10-03T17:49:58.302Z,9.85
2022-10-03T17:52:27.695Z,9.81
2022-10-03T17:55:02.289Z,9.85
2022-10-03T17:57:37.565Z,9.79
2022-10-03T18:00:18.373Z,9.82
2022-10-03T18:03:09.541Z,9.83
2022-10-03T18:05:50.467Z,9.90
2022-10-03T18:08:30.568Z,9.86
2022-10-03T18:11:02.547Z,9.78
2022-10-03T18:13:39.001Z,9.76
2022-10-03T18:16:19.685Z,9.75
2022-10-03T18:19:05.799Z,9.73
2022-10-03T18:21:52.559Z,9.81
2022-10-03T18:24:26.381Z,9.75
2022-10-03T18:27:19.350Z,9.78
2022-10-03T18:29:58.853Z,9.79
2022-10-03T18:32:32.636Z,9.77
2022-10-03T18:35:21.091Z,9.75
2022-10-03T18:37:58.951Z,9.77
2022-10-03T18:40:43.426Z,9.70
2022-10-03T18:43:28.115Z,9.73
2022-10-03T18:46:03.909Z,9.71
2022-10-03T18:48:33.948Z,9.77
2022-10-03T18:51:04.328Z,9.79
2022-10-03T18:53:44.403Z,9.73
2022-10-03T18:56:18.763Z,9.71
2022-10-03T18:58:50.979Z,9.71
2022-10-03T19:01:48.190Z,9.69
2022-10-03T19:04:23.845Z,9.74
2022-10-03T19:06:54.596Z,9.70
2022-10-03T19:09:30.864Z,9.76
2022-10-03T19:12:34.566Z,9.75
2022-10-03T19:15:19.159Z,9.78
2022-10-03T19:18:17.431Z,9.73
2022-10-03T19:20:47.226Z,9.67
2022-10-03T19:23:42.904Z,9.69
2022-10-03T19:26:18.848Z,9.67
2022-10-03T19:28:54.400Z,9.67
2022-10-03T19:31:25.482Z,9.65
2022-10-03T19:34:05.824Z,9.67
2022-10-03T19:36:39.499Z,9.67
2022-10-03T19:39:12.896Z,9.68
2022-10-03T19:41:55.244Z,9.68
2022-10-03T19:44:27.543Z,9.65
2022-10-03T19:47:20.329Z,9.68
2022-10-03T19:49:53.138Z,9.65
2022-10-03T19:52:29.764Z,9.61
2022-10-03T19:55:22.319Z,9.62
2022-10-03T19:57:55.152Z,9.63
2022-10-03T20:00:27.704Z,9.65
2022-10-03T20:03:14.105Z,9.65
2022-10-03T20:05:59.811Z,9.64
2022-10-03T20:08:27.299Z,9.60
2022-10-03T20:11:17.946Z,9.64
2022-10-03T20:13:49.943Z,9.63
2022-10-03T20:16:30.001Z,9.65
2022-10-03T20:19:14.731Z,9.65
2022-10-03T20:21:42.641Z,9.66
2022-10-03T20:24:42.579Z,9.62
2022-10-03T20:27:29.577Z,9.61
2022-10-03T20:30:35.899Z,9.59
2022-10-03T20:33:04.733Z,9.58
2022-10-03T20:35:53.611Z,9.58
2022-10-03T20:38:27.177Z,9.58
2022-10-03T20:41:19.811Z,9.62
2022-10-03T20:43:59.536Z,9.59
2022-10-03T20:46:45.335Z,9.58
2022-10-03T20:49:27.172Z,9.56
2022-10-03T20:51:54.591Z,9.59
2022-10-03T20:54:25.509Z,9.62
2022-10-03T20:57:02.089Z,9.61
2022-10-03T20:59:46.877Z,9.63
2022-10-03T21:02:41.369Z,9.61
2022-10-03T21:05:23.704Z,9.56
2022-10-03T21:07:58.650Z,9.62
2022-10-03T21:10:31.035Z,9.56
2022-10-03T21:13:07.149Z,9.64
2022-10-03T21:15:46.859Z,9.58
2022-10-03T21:18:20.293Z,9.56
2022-10-03T21:20:58.381Z,9.56
2022-10-03T21:23:27.108Z,9.60
2022-10-03T21:25:58.876Z,9.56
2022-10-03T21:28:32.268Z,9.52
2022-10-03T21:31:12.851Z,9.54
2022-10-03T21:34:12.513Z,9.55
2022-10-03T21:36:45.710Z,9.56
2022-10-03T21:40:02.460Z,9.56
2022-10-03T21:42:48.544Z,9.53
2022-10-03T21:45:31.892Z,9.55
2022-10-03T21:48:20.020Z,9.58
2022-10-03T21:50:54.804Z,9.57
2022-10-03T21:53:53.474Z,9.53
2022-10-03T21:56:26.482Z,9.54
2022-10-03T21:59:22.170Z,9.57
2022-10-03T22:01:59.823Z,9.52
2022-10-03T22:04:43.484Z,9.56
2022-10-03T22:07:17.250Z,9.51
2022-10-03T22:09:49.436Z,9.49
2022-10-03T22:12:18.344Z,9.47
2022-10-03T22:15:21.434Z,9.49
2022-10-03T22:18:00.910Z,9.48
2022-10-03T22:20:30.866Z,9.42
2022-10-03T22:23:23.560Z,9.43
2022-10-03T22:26:09.064Z,9.40
2022-10-03T22:28:57.403Z,9.40
2022-10-03T22:31:53.172Z,9.47
2022-10-03T22:34:32.729Z,9.43
2022-10-03T22:37:01.042Z,9.41
2022-10-03T22:39:29.589Z,9.46
2022-10-03T22:42:03.267Z,9.43
2022-10-03T22:44:35.336Z,9.42
2022-10-03T22:47:26.388Z,9.45
2022-10-03T22:49:59.700Z,9.41
2022-10-03T22:52:32.597Z,9.46
2022-10-03T22:55:02.756Z,9.42
2022-10-03T22:57:35.625Z,9.42
2022-10-03T23:00:12.240Z,9.41
2022-10-03T23:03:11.179Z,9.38
2022-10-03T23:05:55.164Z,9.36
2022-10-03T23:08:44.113Z,9.37
2022-10-03T23:11:23.147Z,9.36
2022-10-03T23:13:51.051Z,9.38
2022-10-03T23:16:42.344Z,9.40
2022-10-03T23:19:25.724Z,9.39
2022-10-03T23:21:57.313Z,9.39
2022-10-03T23:24:40.023Z,9.40
2022-10-03T23:27:29.022Z,9.35
2022-10-03T23:30:11.717Z,9.34
2022-10-03T23:32:54.214Z,9.35
2022-10-03T23:35:30.807Z,9.33
2022-10-03T23:37:59.978Z,9.36
2022-10-03T23:40:36.421Z,9.39
2022-10-03T23:43:04.219Z,9.37
2022-10-03T23:45:35.388Z,9.33
2022-10-03T23:48:17.425Z,9.33
2022-10-03T23:50:52.972Z,9.29
2022-10-03T23:53:32.197Z,9.29
2022-10-03T23:56:01.336Z,9.30
2022-10-03T23:58:32.295Z,9.31
